sensor_id;sensor_type;location;lat;lon;timestamp;P1;durP1;ratioP1;P2;durP2;ratioP2
57313;SDS011;53202;50.976;18.216;2022-07-04T00:00:36;7.70;;;4.80;;
57313;SDS011;53202;50.976;18.216;2022-07-04T00:03:16;5.80;;;5.20;;
57313;SDS011;53202;50.976;18.216;2022-07-04T00:05:57;6.20;;;4.80;;
57313;SDS011;53202;50.976;18.216;2022-07-04T00:08:37;7.60;;;5.30;;
57313;SDS011;53202;50.976;18.216;2022-07-04T00:11:17;6.50;;;5.10;;
57313;SDS011;53202;50.976;18.216;2022-07-04T00:13:58;6.50;;;4.90;;
57313;SDS011;53202;50.976;18.216;2022-07-04T00:16:38;8.40;;;4.70;;
57313;SDS011;53202;50.976;18.216;2022-07-04T00:19:18;6.00;;;5.00;;
57313;SDS011;53202;50.976;18.216;2022-07-04T00:21:58;6.30;;;4.80;;
57313;SDS011;53202;50.976;18.216;2022-07-04T00:24:39;5.50;;;4.80;;
57313;SDS011;53202;50.976;18.216;2022-07-04T00:27:19;8.40;;;5.20;;
57313;SDS011;53202;50.976;18.216;2022-07-04T00:30:00;6.10;;;5.50;;
57313;SDS011;53202;50.976;18.216;2022-07-04T00:32:40;12.20;;;5.40;;
57313;SDS011;53202;50.976;18.216;2022-07-04T00:35:20;6.20;;;4.80;;
57313;SDS011;53202;50.976;18.216;2022-07-04T00:38:00;7.50;;;5.40;;
57313;SDS011;53202;50.976;18.216;2022-07-04T00:40:41;11.00;;;5.40;;
57313;SDS011;53202;50.976;18.216;2022-07-04T00:43:23;6.80;;;5.20;;
57313;SDS011;53202;50.976;18.216;2022-07-04T00:46:03;7.70;;;5.20;;
57313;SDS011;53202;50.976;18.216;2022-07-04T00:48:42;6.00;;;5.20;;
57313;SDS011;53202;50.976;18.216;2022-07-04T00:51:22;10.20;;;5.60;;
57313;SDS011;53202;50.976;18.216;2022-07-04T00:54:02;6.30;;;5.40;;
57313;SDS011;53202;50.976;18.216;2022-07-04T00:56:43;7.60;;;5.90;;
57313;SDS011;53202;50.976;18.216;2022-07-04T00:59:23;12.10;;;6.40;;
57313;SDS011;53202;50.976;18.216;2022-07-04T01:02:03;6.10;;;5.50;;
57313;SDS011;53202;50.976;18.216;2022-07-04T01:04:43;10.30;;;5.90;;
57313;SDS011;53202;50.976;18.216;2022-07-04T01:07:24;7.90;;;6.00;;
57313;SDS011;53202;50.976;18.216;2022-07-04T01:10:04;10.10;;;6.90;;
57313;SDS011;53202;50.976;18.216;2022-07-04T01:12:44;8.20;;;6.20;;
57313;SDS011;53202;50.976;18.216;2022-07-04T01:15:24;8.80;;;6.40;;
57313;SDS011;53202;50.976;18.216;2022-07-04T01:18:05;9.20;;;6.10;;
57313;SDS011;53202;50.976;18.216;2022-07-04T01:20:45;10.10;;;6.30;;
57313;SDS011;53202;50.976;18.216;2022-07-04T01:23:25;9.70;;;7.20;;
57313;SDS011;53202;50.976;18.216;2022-07-04T01:26:06;8.90;;;7.00;;
57313;SDS011;53202;50.976;18.216;2022-07-04T01:28:46;10.00;;;6.90;;
57313;SDS011;53202;50.976;18.216;2022-07-04T01:31:26;9.00;;;6.70;;
57313;SDS011;53202;50.976;18.216;2022-07-04T01:34:07;12.10;;;7.90;;
57313;SDS011;53202;50.976;18.216;2022-07-04T01:36:47;12.10;;;8.60;;
57313;SDS011;53202;50.976;18.216;2022-07-04T01:39:28;11.50;;;7.80;;
57313;SDS011;53202;50.976;18.216;2022-07-04T01:42:07;9.20;;;7.70;;
57313;SDS011;53202;50.976;18.216;2022-07-04T01:44:48;9.60;;;7.90;;
57313;SDS011;53202;50.976;18.216;2022-07-04T01:47:28;12.90;;;8.60;;
57313;SDS011;53202;50.976;18.216;2022-07-04T01:50:09;9.90;;;8.30;;
57313;SDS011;53202;50.976;18.216;2022-07-04T01:52:49;16.50;;;8.30;;
57313;SDS011;53202;50.976;18.216;2022-07-04T01:55:29;11.90;;;7.90;;
57313;SDS011;53202;50.976;18.216;2022-07-04T01:58:09;10.10;;;8.70;;
57313;SDS011;53202;50.976;18.216;2022-07-04T02:00:50;13.30;;;8.90;;
57313;SDS011;53202;50.976;18.216;2022-07-04T02:03:50;13.60;;;8.70;;
57313;SDS011;53202;50.976;18.216;2022-07-04T02:06:30;10.30;;;8.80;;
57313;SDS011;53202;50.976;18.216;2022-07-04T02:09:11;14.20;;;9.20;;
57313;SDS011;53202;50.976;18.216;2022-07-04T02:12:01;13.40;;;9.00;;
57313;SDS011;53202;50.976;18.216;2022-07-04T02:15:01;18.20;;;9.40;;
57313;SDS011;53202;50.976;18.216;2022-07-04T02:17:41;15.70;;;9.50;;
57313;SDS011;53202;50.976;18.216;2022-07-04T02:20:23;10.30;;;8.70;;
57313;SDS011;53202;50.976;18.216;2022-07-04T02:23:05;14.80;;;10.20;;
57313;SDS011;53202;50.976;18.216;2022-07-04T02:25:43;11.90;;;9.10;;
57313;SDS011;53202;50.976;18.216;2022-07-04T02:28:23;15.10;;;10.20;;
57313;SDS011;53202;50.976;18.216;2022-07-04T02:31:04;12.50;;;9.50;;
57313;SDS011;53202;50.976;18.216;2022-07-04T02:33:44;15.90;;;10.10;;
57313;SDS011;53202;50.976;18.216;2022-07-04T02:36:24;12.50;;;9.50;;
57313;SDS011;53202;50.976;18.216;2022-07-04T02:39:05;13.00;;;9.90;;
57313;SDS011;53202;50.976;18.216;2022-07-04T02:41:45;13.10;;;10.60;;
57313;SDS011;53202;50.976;18.216;2022-07-04T02:44:25;11.80;;;10.20;;
57313;SDS011;53202;50.976;18.216;2022-07-04T02:47:05;13.60;;;11.60;;
57313;SDS011;53202;50.976;18.216;2022-07-04T02:49:46;14.90;;;11.50;;
57313;SDS011;53202;50.976;18.216;2022-07-04T02:52:26;16.50;;;10.50;;
57313;SDS011;53202;50.976;18.216;2022-07-04T02:55:06;16.50;;;10.90;;
57313;SDS011;53202;50.976;18.216;2022-07-04T02:57:47;14.90;;;10.90;;
57313;SDS011;53202;50.976;18.216;2022-07-04T03:00:27;15.30;;;10.90;;
57313;SDS011;53202;50.976;18.216;2022-07-04T03:03:07;19.20;;;11.10;;
57313;SDS011;53202;50.976;18.216;2022-07-04T03:05:47;16.90;;;11.60;;
57313;SDS011;53202;50.976;18.216;2022-07-04T03:08:28;18.70;;;11.30;;
57313;SDS011;53202;50.976;18.216;2022-07-04T03:11:08;16.80;;;12.80;;
57313;SDS011;53202;50.976;18.216;2022-07-04T03:13:48;21.60;;;12.70;;
57313;SDS011;53202;50.976;18.216;2022-07-04T03:16:29;18.70;;;13.30;;
57313;SDS011;53202;50.976;18.216;2022-07-04T03:19:09;18.90;;;13.50;;
57313;SDS011;53202;50.976;18.216;2022-07-04T03:21:49;24.30;;;13.60;;
57313;SDS011;53202;50.976;18.216;2022-07-04T03:24:30;19.20;;;13.30;;
57313;SDS011;53202;50.976;18.216;2022-07-04T03:27:10;14.60;;;13.00;;
57313;SDS011;53202;50.976;18.216;2022-07-04T03:29:50;15.80;;;12.60;;
57313;SDS011;53202;50.976;18.216;2022-07-04T03:32:30;16.30;;;13.50;;
57313;SDS011;53202;50.976;18.216;2022-07-04T03:35:11;19.50;;;12.10;;
57313;SDS011;53202;50.976;18.216;2022-07-04T03:37:51;17.80;;;13.40;;
57313;SDS011;53202;50.976;18.216;2022-07-04T03:40:31;17.50;;;13.50;;
57313;SDS011;53202;50.976;18.216;2022-07-04T03:43:11;16.60;;;12.80;;
57313;SDS011;53202;50.976;18.216;2022-07-04T03:45:52;15.20;;;12.90;;
57313;SDS011;53202;50.976;18.216;2022-07-04T03:48:32;16.20;;;13.80;;
57313;SDS011;53202;50.976;18.216;2022-07-04T03:51:12;15.90;;;13.00;;
57313;SDS011;53202;50.976;18.216;2022-07-04T03:53:53;22.30;;;12.90;;
57313;SDS011;53202;50.976;18.216;2022-07-04T03:56:33;19.20;;;12.90;;
57313;SDS011;53202;50.976;18.216;2022-07-04T03:59:13;17.10;;;13.10;;
57313;SDS011;53202;50.976;18.216;2022-07-04T04:01:53;17.20;;;13.40;;
57313;SDS011;53202;50.976;18.216;2022-07-04T04:04:34;23.50;;;12.30;;
57313;SDS011;53202;50.976;18.216;2022-07-04T04:07:34;16.60;;;13.30;;
57313;SDS011;53202;50.976;18.216;2022-07-04T04:10:14;21.70;;;13.50;;
57313;SDS011;53202;50.976;18.216;2022-07-04T04:12:55;14.90;;;13.30;;
57313;SDS011;53202;50.976;18.216;2022-07-04T04:15:35;19.50;;;12.90;;
57313;SDS011;53202;50.976;18.216;2022-07-04T04:18:15;17.80;;;12.00;;
57313;SDS011;53202;50.976;18.216;2022-07-04T04:20:57;12.60;;;11.40;;
57313;SDS011;53202;50.976;18.216;2022-07-04T04:23:37;15.00;;;12.50;;
57313;SDS011;53202;50.976;18.216;2022-07-04T04:26:18;18.00;;;11.90;;
57313;SDS011;53202;50.976;18.216;2022-07-04T04:28:58;14.00;;;11.30;;
57313;SDS011;53202;50.976;18.216;2022-07-04T04:31:38;13.00;;;11.60;;
57313;SDS011;53202;50.976;18.216;2022-07-04T04:34:19;14.90;;;12.10;;
57313;SDS011;53202;50.976;18.216;2022-07-04T04:36:59;15.30;;;12.00;;
57313;SDS011;53202;50.976;18.216;2022-07-04T04:39:39;16.40;;;11.80;;
57313;SDS011;53202;50.976;18.216;2022-07-04T04:42:20;16.70;;;10.60;;
57313;SDS011;53202;50.976;18.216;2022-07-04T04:45:00;13.60;;;10.00;;
57313;SDS011;53202;50.976;18.216;2022-07-04T04:47:40;11.70;;;9.90;;
57313;SDS011;53202;50.976;18.216;2022-07-04T04:50:21;29.70;;;11.20;;
57313;SDS011;53202;50.976;18.216;2022-07-04T04:53:01;12.60;;;10.90;;
57313;SDS011;53202;50.976;18.216;2022-07-04T04:55:41;17.00;;;11.50;;
57313;SDS011;53202;50.976;18.216;2022-07-04T04:58:22;12.80;;;10.10;;
57313;SDS011;53202;50.976;18.216;2022-07-04T05:01:02;15.50;;;10.50;;
57313;SDS011;53202;50.976;18.216;2022-07-04T05:03:42;11.80;;;10.20;;
57313;SDS011;53202;50.976;18.216;2022-07-04T05:06:22;15.50;;;10.50;;
57313;SDS011;53202;50.976;18.216;2022-07-04T05:09:03;16.90;;;11.00;;
57313;SDS011;53202;50.976;18.216;2022-07-04T05:11:43;15.60;;;10.60;;
57313;SDS011;53202;50.976;18.216;2022-07-04T05:14:23;13.50;;;9.80;;
57313;SDS011;53202;50.976;18.216;2022-07-04T05:17:03;23.00;;;10.10;;
57313;SDS011;53202;50.976;18.216;2022-07-04T05:19:44;12.60;;;9.50;;
57313;SDS011;53202;50.976;18.216;2022-07-04T05:22:24;12.50;;;8.70;;
57313;SDS011;53202;50.976;18.216;2022-07-04T05:25:04;12.40;;;10.60;;
57313;SDS011;53202;50.976;18.216;2022-07-04T05:27:44;14.80;;;10.70;;
57313;SDS011;53202;50.976;18.216;2022-07-04T05:30:25;12.20;;;9.80;;
57313;SDS011;53202;50.976;18.216;2022-07-04T05:33:05;13.20;;;9.50;;
57313;SDS011;53202;50.976;18.216;2022-07-04T05:35:45;11.50;;;10.00;;
57313;SDS011;53202;50.976;18.216;2022-07-04T05:38:25;11.40;;;9.80;;
57313;SDS011;53202;50.976;18.216;2022-07-04T05:41:06;15.10;;;10.30;;
57313;SDS011;53202;50.976;18.216;2022-07-04T05:43:46;21.80;;;10.20;;
57313;SDS011;53202;50.976;18.216;2022-07-04T05:46:26;16.10;;;10.30;;
57313;SDS011;53202;50.976;18.216;2022-07-04T05:49:06;13.00;;;9.50;;
57313;SDS011;53202;50.976;18.216;2022-07-04T05:51:46;17.20;;;10.00;;
57313;SDS011;53202;50.976;18.216;2022-07-04T05:54:27;14.80;;;10.80;;
57313;SDS011;53202;50.976;18.216;2022-07-04T05:57:07;12.10;;;10.00;;
57313;SDS011;53202;50.976;18.216;2022-07-04T05:59:47;16.50;;;9.80;;
57313;SDS011;53202;50.976;18.216;2022-07-04T06:02:27;11.60;;;9.90;;
57313;SDS011;53202;50.976;18.216;2022-07-04T06:05:08;12.30;;;10.50;;
57313;SDS011;53202;50.976;18.216;2022-07-04T06:07:48;13.40;;;10.10;;
57313;SDS011;53202;50.976;18.216;2022-07-04T06:10:28;14.50;;;11.60;;
57313;SDS011;53202;50.976;18.216;2022-07-04T06:13:09;14.50;;;10.70;;
57313;SDS011;53202;50.976;18.216;2022-07-04T06:15:49;11.50;;;10.30;;
57313;SDS011;53202;50.976;18.216;2022-07-04T06:18:29;15.90;;;12.20;;
57313;SDS011;53202;50.976;18.216;2022-07-04T06:21:09;15.30;;;10.10;;
57313;SDS011;53202;50.976;18.216;2022-07-04T06:23:49;22.30;;;11.30;;
57313;SDS011;53202;50.976;18.216;2022-07-04T06:26:29;11.10;;;8.50;;
57313;SDS011;53202;50.976;18.216;2022-07-04T06:29:10;14.20;;;9.30;;
57313;SDS011;53202;50.976;18.216;2022-07-04T06:31:50;12.30;;;9.40;;
57313;SDS011;53202;50.976;18.216;2022-07-04T06:34:30;10.00;;;8.90;;
57313;SDS011;53202;50.976;18.216;2022-07-04T06:37:30;11.00;;;8.40;;
57313;SDS011;53202;50.976;18.216;2022-07-04T06:40:11;9.90;;;8.90;;
57313;SDS011;53202;50.976;18.216;2022-07-04T06:42:51;9.80;;;8.10;;
57313;SDS011;53202;50.976;18.216;2022-07-04T06:45:31;21.10;;;8.70;;
57313;SDS011;53202;50.976;18.216;2022-07-04T06:48:11;13.30;;;7.80;;
57313;SDS011;53202;50.976;18.216;2022-07-04T06:50:51;11.30;;;7.90;;
57313;SDS011;53202;50.976;18.216;2022-07-04T06:53:31;10.60;;;7.60;;
57313;SDS011;53202;50.976;18.216;2022-07-04T06:56:12;8.30;;;7.40;;
57313;SDS011;53202;50.976;18.216;2022-07-04T06:58:52;10.70;;;7.60;;
57313;SDS011;53202;50.976;18.216;2022-07-04T07:01:32;10.00;;;7.40;;
57313;SDS011;53202;50.976;18.216;2022-07-04T07:04:12;8.10;;;7.20;;
57313;SDS011;53202;50.976;18.216;2022-07-04T07:06:53;9.20;;;7.30;;
57313;SDS011;53202;50.976;18.216;2022-07-04T07:09:33;8.70;;;6.70;;
57313;SDS011;53202;50.976;18.216;2022-07-04T07:12:13;7.40;;;5.70;;
57313;SDS011;53202;50.976;18.216;2022-07-04T07:14:53;7.50;;;6.00;;
57313;SDS011;53202;50.976;18.216;2022-07-04T07:17:34;6.40;;;5.60;;
57313;SDS011;53202;50.976;18.216;2022-07-04T07:20:14;6.00;;;5.40;;
57313;SDS011;53202;50.976;18.216;2022-07-04T07:22:54;11.60;;;5.60;;
57313;SDS011;53202;50.976;18.216;2022-07-04T07:25:34;8.90;;;5.10;;
57313;SDS011;53202;50.976;18.216;2022-07-04T07:28:15;6.00;;;5.40;;
57313;SDS011;53202;50.976;18.216;2022-07-04T07:30:55;6.30;;;5.00;;
57313;SDS011;53202;50.976;18.216;2022-07-04T07:33:35;9.20;;;5.40;;
57313;SDS011;53202;50.976;18.216;2022-07-04T07:36:15;9.70;;;5.50;;
57313;SDS011;53202;50.976;18.216;2022-07-04T07:38:56;5.60;;;5.00;;
57313;SDS011;53202;50.976;18.216;2022-07-04T07:41:36;6.90;;;5.40;;
57313;SDS011;53202;50.976;18.216;2022-07-04T07:44:17;12.60;;;5.00;;
57313;SDS011;53202;50.976;18.216;2022-07-04T07:46:56;7.80;;;5.10;;
57313;SDS011;53202;50.976;18.216;2022-07-04T07:49:37;8.30;;;5.50;;
57313;SDS011;53202;50.976;18.216;2022-07-04T07:52:17;6.90;;;5.00;;
57313;SDS011;53202;50.976;18.216;2022-07-04T07:54:57;6.30;;;5.60;;
57313;SDS011;53202;50.976;18.216;2022-07-04T07:57:37;7.00;;;5.00;;
57313;SDS011;53202;50.976;18.216;2022-07-04T08:00:18;8.00;;;5.60;;
57313;SDS011;53202;50.976;18.216;2022-07-04T08:02:58;7.60;;;5.40;;
57313;SDS011;53202;50.976;18.216;2022-07-04T08:05:58;8.10;;;5.10;;
57313;SDS011;53202;50.976;18.216;2022-07-04T08:08:39;8.00;;;5.40;;
57313;SDS011;53202;50.976;18.216;2022-07-04T08:11:19;8.60;;;5.40;;
57313;SDS011;53202;50.976;18.216;2022-07-04T08:13:59;7.10;;;5.00;;
57313;SDS011;53202;50.976;18.216;2022-07-04T08:16:39;7.50;;;5.20;;
57313;SDS011;53202;50.976;18.216;2022-07-04T08:19:20;12.30;;;5.00;;
57313;SDS011;53202;50.976;18.216;2022-07-04T08:22:00;7.20;;;5.00;;
57313;SDS011;53202;50.976;18.216;2022-07-04T08:24:41;6.60;;;5.80;;
57313;SDS011;53202;50.976;18.216;2022-07-04T08:27:21;7.30;;;5.10;;
57313;SDS011;53202;50.976;18.216;2022-07-04T08:30:02;7.20;;;5.50;;
57313;SDS011;53202;50.976;18.216;2022-07-04T08:32:42;6.40;;;5.50;;
57313;SDS011;53202;50.976;18.216;2022-07-04T08:35:22;6.60;;;5.50;;
57313;SDS011;53202;50.976;18.216;2022-07-04T08:38:02;8.10;;;4.90;;
57313;SDS011;53202;50.976;18.216;2022-07-04T08:40:42;12.50;;;4.90;;
57313;SDS011;53202;50.976;18.216;2022-07-04T08:43:23;5.90;;;5.40;;
57313;SDS011;53202;50.976;18.216;2022-07-04T08:46:03;5.40;;;4.70;;
57313;SDS011;53202;50.976;18.216;2022-07-04T08:48:48;10.00;;;5.00;;
57313;SDS011;53202;50.976;18.216;2022-07-04T08:52:07;7.90;;;5.10;;
57313;SDS011;53202;50.976;18.216;2022-07-04T08:54:33;8.00;;;5.00;;
57313;SDS011;53202;50.976;18.216;2022-07-04T08:57:34;6.90;;;5.40;;
57313;SDS011;53202;50.976;18.216;2022-07-04T09:00:34;7.60;;;5.20;;
57313;SDS011;53202;50.976;18.216;2022-07-04T09:03:14;10.70;;;5.40;;
57313;SDS011;53202;50.976;18.216;2022-07-04T09:05:55;7.70;;;5.10;;
57313;SDS011;53202;50.976;18.216;2022-07-04T09:08:35;7.50;;;5.00;;
57313;SDS011;53202;50.976;18.216;2022-07-04T09:11:15;11.40;;;4.60;;
57313;SDS011;53202;50.976;18.216;2022-07-04T09:13:56;5.00;;;4.30;;
57313;SDS011;53202;50.976;18.216;2022-07-04T09:16:36;7.20;;;4.70;;
57313;SDS011;53202;50.976;18.216;2022-07-04T09:19:19;9.40;;;4.70;;
57313;SDS011;53202;50.976;18.216;2022-07-04T09:21:56;5.90;;;4.80;;
57313;SDS011;53202;50.976;18.216;2022-07-04T09:24:47;6.90;;;4.70;;
57313;SDS011;53202;50.976;18.216;2022-07-04T09:27:35;6.10;;;4.50;;
57313;SDS011;53202;50.976;18.216;2022-07-04T09:30:19;5.50;;;4.60;;
57313;SDS011;53202;50.976;18.216;2022-07-04T09:32:57;5.00;;;4.50;;
57313;SDS011;53202;50.976;18.216;2022-07-04T09:35:37;5.40;;;4.50;;
57313;SDS011;53202;50.976;18.216;2022-07-04T09:38:21;4.80;;;4.10;;
57313;SDS011;53202;50.976;18.216;2022-07-04T09:40:59;9.80;;;4.50;;
57313;SDS011;53202;50.976;18.216;2022-07-04T09:43:59;4.70;;;4.30;;
57313;SDS011;53202;50.976;18.216;2022-07-04T09:46:38;7.70;;;4.00;;
57313;SDS011;53202;50.976;18.216;2022-07-04T09:49:19;11.80;;;3.60;;
57313;SDS011;53202;50.976;18.216;2022-07-04T09:51:59;8.60;;;4.30;;
57313;SDS011;53202;50.976;18.216;2022-07-04T09:54:39;8.60;;;4.30;;
57313;SDS011;53202;50.976;18.216;2022-07-04T09:57:21;7.50;;;4.00;;
57313;SDS011;53202;50.976;18.216;2022-07-04T10:06:10;5.40;;;4.80;;
57313;SDS011;53202;50.976;18.216;2022-07-04T10:08:50;8.10;;;4.60;;
57313;SDS011;53202;50.976;18.216;2022-07-04T10:11:32;6.70;;;4.90;;
57313;SDS011;53202;50.976;18.216;2022-07-04T10:14:11;7.30;;;4.70;;
57313;SDS011;53202;50.976;18.216;2022-07-04T10:16:51;9.50;;;5.20;;
57313;SDS011;53202;50.976;18.216;2022-07-04T10:19:31;9.40;;;4.90;;
57313;SDS011;53202;50.976;18.216;2022-07-04T10:22:12;6.90;;;5.40;;
57313;SDS011;53202;50.976;18.216;2022-07-04T10:24:52;8.70;;;5.70;;
57313;SDS011;53202;50.976;18.216;2022-07-04T10:27:32;9.20;;;6.00;;
57313;SDS011;53202;50.976;18.216;2022-07-04T10:30:14;6.00;;;4.70;;
57313;SDS011;53202;50.976;18.216;2022-07-04T10:32:53;9.20;;;5.40;;
57313;SDS011;53202;50.976;18.216;2022-07-04T10:38:34;8.50;;;5.50;;
57313;SDS011;53202;50.976;18.216;2022-07-04T10:41:13;7.30;;;5.10;;
57313;SDS011;53202;50.976;18.216;2022-07-04T10:43:56;8.40;;;6.10;;
57313;SDS011;53202;50.976;18.216;2022-07-04T10:46:36;7.50;;;5.50;;
57313;SDS011;53202;50.976;18.216;2022-07-04T10:49:18;11.00;;;5.30;;
57313;SDS011;53202;50.976;18.216;2022-07-04T10:51:55;8.00;;;5.50;;
57313;SDS011;53202;50.976;18.216;2022-07-04T10:54:35;8.50;;;5.70;;
57313;SDS011;53202;50.976;18.216;2022-07-04T10:57:16;7.70;;;4.80;;
57313;SDS011;53202;50.976;18.216;2022-07-04T11:02:45;6.40;;;5.10;;
57313;SDS011;53202;50.976;18.216;2022-07-04T11:05:32;5.20;;;4.70;;
57313;SDS011;53202;50.976;18.216;2022-07-04T11:08:16;10.90;;;5.40;;
57313;SDS011;53202;50.976;18.216;2022-07-04T11:10:56;6.70;;;5.10;;
57313;SDS011;53202;50.976;18.216;2022-07-04T11:13:46;5.70;;;5.10;;
57313;SDS011;53202;50.976;18.216;2022-07-04T11:16:26;6.00;;;4.80;;
57313;SDS011;53202;50.976;18.216;2022-07-04T11:19:27;14.00;;;5.10;;
57313;SDS011;53202;50.976;18.216;2022-07-04T11:22:08;8.10;;;4.30;;
57313;SDS011;53202;50.976;18.216;2022-07-04T11:24:48;10.20;;;4.70;;
57313;SDS011;53202;50.976;18.216;2022-07-04T11:27:28;5.90;;;3.40;;
57313;SDS011;53202;50.976;18.216;2022-07-04T11:30:09;5.20;;;3.30;;
57313;SDS011;53202;50.976;18.216;2022-07-04T11:32:49;5.60;;;3.00;;
57313;SDS011;53202;50.976;18.216;2022-07-04T11:35:29;4.10;;;3.30;;
57313;SDS011;53202;50.976;18.216;2022-07-04T11:38:09;7.00;;;3.20;;
57313;SDS011;53202;50.976;18.216;2022-07-04T11:40:49;3.30;;;2.90;;
57313;SDS011;53202;50.976;18.216;2022-07-04T11:43:50;9.70;;;3.00;;
57313;SDS011;53202;50.976;18.216;2022-07-04T11:46:50;2.80;;;2.30;;
57313;SDS011;53202;50.976;18.216;2022-07-04T11:49:30;2.90;;;2.40;;
57313;SDS011;53202;50.976;18.216;2022-07-04T11:52:11;4.60;;;2.60;;
57313;SDS011;53202;50.976;18.216;2022-07-04T11:54:51;3.00;;;2.40;;
57313;SDS011;53202;50.976;18.216;2022-07-04T11:57:36;6.10;;;2.50;;
57313;SDS011;53202;50.976;18.216;2022-07-04T12:00:25;4.00;;;2.10;;
57313;SDS011;53202;50.976;18.216;2022-07-04T12:03:02;5.90;;;2.20;;
57313;SDS011;53202;50.976;18.216;2022-07-04T12:05:42;7.20;;;2.50;;
57313;SDS011;53202;50.976;18.216;2022-07-04T12:08:22;8.80;;;2.70;;
57313;SDS011;53202;50.976;18.216;2022-07-04T12:11:02;9.00;;;2.50;;
57313;SDS011;53202;50.976;18.216;2022-07-04T12:13:43;2.70;;;2.00;;
57313;SDS011;53202;50.976;18.216;2022-07-04T12:16:23;3.50;;;2.20;;
57313;SDS011;53202;50.976;18.216;2022-07-04T12:19:08;4.40;;;2.40;;
57313;SDS011;53202;50.976;18.216;2022-07-04T12:21:53;3.50;;;2.20;;
57313;SDS011;53202;50.976;18.216;2022-07-04T12:24:41;8.30;;;3.00;;
57313;SDS011;53202;50.976;18.216;2022-07-04T12:27:25;7.40;;;2.80;;
57313;SDS011;53202;50.976;18.216;2022-07-04T12:30:04;12.90;;;3.00;;
57313;SDS011;53202;50.976;18.216;2022-07-04T12:32:45;7.60;;;3.30;;
57313;SDS011;53202;50.976;18.216;2022-07-04T12:35:44;14.30;;;3.20;;
57313;SDS011;53202;50.976;18.216;2022-07-04T12:41:29;6.80;;;3.20;;
57313;SDS011;53202;50.976;18.216;2022-07-04T12:44:06;6.10;;;3.10;;
57313;SDS011;53202;50.976;18.216;2022-07-04T12:46:46;10.70;;;3.00;;
57313;SDS011;53202;50.976;18.216;2022-07-04T12:49:26;13.00;;;3.50;;
57313;SDS011;53202;50.976;18.216;2022-07-04T12:52:08;13.90;;;2.60;;
57313;SDS011;53202;50.976;18.216;2022-07-04T12:55:01;10.50;;;2.70;;
57313;SDS011;53202;50.976;18.216;2022-07-04T12:57:47;8.50;;;3.10;;
57313;SDS011;53202;50.976;18.216;2022-07-04T13:00:27;7.30;;;3.20;;
57313;SDS011;53202;50.976;18.216;2022-07-04T13:03:08;5.80;;;2.80;;
57313;SDS011;53202;50.976;18.216;2022-07-04T13:05:48;8.00;;;2.80;;
57313;SDS011;53202;50.976;18.216;2022-07-04T13:08:28;6.30;;;3.20;;
57313;SDS011;53202;50.976;18.216;2022-07-04T13:11:09;7.30;;;3.20;;
57313;SDS011;53202;50.976;18.216;2022-07-04T13:14:09;4.00;;;3.00;;
57313;SDS011;53202;50.976;18.216;2022-07-04T13:16:49;8.50;;;3.10;;
57313;SDS011;53202;50.976;18.216;2022-07-04T13:19:29;4.60;;;2.60;;
57313;SDS011;53202;50.976;18.216;2022-07-04T13:22:10;8.30;;;2.50;;
57313;SDS011;53202;50.976;18.216;2022-07-04T13:24:50;8.70;;;3.00;;
57313;SDS011;53202;50.976;18.216;2022-07-04T13:27:30;10.40;;;3.60;;
57313;SDS011;53202;50.976;18.216;2022-07-04T13:30:11;3.00;;;2.30;;
57313;SDS011;53202;50.976;18.216;2022-07-04T13:32:51;11.70;;;3.30;;
57313;SDS011;53202;50.976;18.216;2022-07-04T13:35:31;7.30;;;3.10;;
57313;SDS011;53202;50.976;18.216;2022-07-04T13:38:12;4.70;;;2.50;;
57313;SDS011;53202;50.976;18.216;2022-07-04T13:40:52;6.50;;;2.90;;
57313;SDS011;53202;50.976;18.216;2022-07-04T13:43:32;7.30;;;3.10;;
57313;SDS011;53202;50.976;18.216;2022-07-04T13:46:12;6.10;;;3.40;;
57313;SDS011;53202;50.976;18.216;2022-07-04T13:48:53;6.30;;;3.10;;
57313;SDS011;53202;50.976;18.216;2022-07-04T13:51:33;9.30;;;3.60;;
57313;SDS011;53202;50.976;18.216;2022-07-04T13:54:13;5.20;;;3.50;;
57313;SDS011;53202;50.976;18.216;2022-07-04T13:56:54;6.90;;;3.30;;
57313;SDS011;53202;50.976;18.216;2022-07-04T13:59:34;9.80;;;3.00;;
57313;SDS011;53202;50.976;18.216;2022-07-04T14:02:14;13.00;;;3.70;;
57313;SDS011;53202;50.976;18.216;2022-07-04T14:04:54;7.00;;;3.30;;
57313;SDS011;53202;50.976;18.216;2022-07-04T14:07:35;9.90;;;3.60;;
57313;SDS011;53202;50.976;18.216;2022-07-04T14:10:15;5.40;;;3.30;;
57313;SDS011;53202;50.976;18.216;2022-07-04T14:12:55;5.10;;;3.30;;
57313;SDS011;53202;50.976;18.216;2022-07-04T14:15:36;5.80;;;3.40;;
57313;SDS011;53202;50.976;18.216;2022-07-04T14:18:16;6.60;;;3.50;;
57313;SDS011;53202;50.976;18.216;2022-07-04T14:20:56;5.20;;;3.30;;
57313;SDS011;53202;50.976;18.216;2022-07-04T14:23:37;7.30;;;3.60;;
57313;SDS011;53202;50.976;18.216;2022-07-04T14:26:17;16.80;;;3.60;;
57313;SDS011;53202;50.976;18.216;2022-07-04T14:28:58;4.70;;;3.60;;
57313;SDS011;53202;50.976;18.216;2022-07-04T14:31:39;4.50;;;3.10;;
57313;SDS011;53202;50.976;18.216;2022-07-04T14:34:19;8.50;;;3.00;;
57313;SDS011;53202;50.976;18.216;2022-07-04T14:36:59;6.30;;;3.20;;
57313;SDS011;53202;50.976;18.216;2022-07-04T14:39:40;7.70;;;3.10;;
57313;SDS011;53202;50.976;18.216;2022-07-04T14:42:20;5.60;;;3.40;;
57313;SDS011;53202;50.976;18.216;2022-07-04T14:45:00;4.00;;;2.90;;
57313;SDS011;53202;50.976;18.216;2022-07-04T14:47:41;6.60;;;3.10;;
57313;SDS011;53202;50.976;18.216;2022-07-04T14:50:21;6.20;;;2.60;;
57313;SDS011;53202;50.976;18.216;2022-07-04T14:53:01;3.00;;;2.60;;
57313;SDS011;53202;50.976;18.216;2022-07-04T14:55:41;2.60;;;2.30;;
57313;SDS011;53202;50.976;18.216;2022-07-04T14:58:22;4.00;;;2.30;;
57313;SDS011;53202;50.976;18.216;2022-07-04T15:01:02;3.40;;;2.40;;
57313;SDS011;53202;50.976;18.216;2022-07-04T15:03:42;11.70;;;2.60;;
57313;SDS011;53202;50.976;18.216;2022-07-04T15:06:23;5.10;;;2.50;;
57313;SDS011;53202;50.976;18.216;2022-07-04T15:09:04;5.20;;;2.00;;
57313;SDS011;53202;50.976;18.216;2022-07-04T15:11:43;3.20;;;2.50;;
57313;SDS011;53202;50.976;18.216;2022-07-04T15:14:24;11.30;;;2.70;;
57313;SDS011;53202;50.976;18.216;2022-07-04T15:17:04;8.40;;;2.50;;
57313;SDS011;53202;50.976;18.216;2022-07-04T15:19:44;2.60;;;1.70;;
57313;SDS011;53202;50.976;18.216;2022-07-04T15:22:44;12.00;;;2.30;;
57313;SDS011;53202;50.976;18.216;2022-07-04T15:25:45;3.70;;;2.30;;
57313;SDS011;53202;50.976;18.216;2022-07-04T15:28:25;8.80;;;2.50;;
57313;SDS011;53202;50.976;18.216;2022-07-04T15:31:05;5.30;;;2.40;;
57313;SDS011;53202;50.976;18.216;2022-07-04T15:33:46;7.10;;;2.20;;
57313;SDS011;53202;50.976;18.216;2022-07-04T15:36:26;5.30;;;2.30;;
57313;SDS011;53202;50.976;18.216;2022-07-04T15:39:07;12.10;;;2.40;;
57313;SDS011;53202;50.976;18.216;2022-07-04T15:41:47;3.40;;;2.30;;
57313;SDS011;53202;50.976;18.216;2022-07-04T15:44:27;4.70;;;2.30;;
57313;SDS011;53202;50.976;18.216;2022-07-04T15:47:07;3.00;;;1.70;;
57313;SDS011;53202;50.976;18.216;2022-07-04T15:49:47;3.50;;;2.10;;
57313;SDS011;53202;50.976;18.216;2022-07-04T15:52:28;3.30;;;2.30;;
57313;SDS011;53202;50.976;18.216;2022-07-04T15:55:08;7.10;;;2.10;;
57313;SDS011;53202;50.976;18.216;2022-07-04T15:57:48;3.10;;;2.10;;
57313;SDS011;53202;50.976;18.216;2022-07-04T16:00:29;3.60;;;2.20;;
57313;SDS011;53202;50.976;18.216;2022-07-04T16:03:09;5.40;;;2.20;;